createdAt,value
2022-09-28T00:07:51.727Z,9.53
2022-09-28T00:17:54.019Z,9.52
2022-09-28T00:27:57.394Z,9.50
2022-09-28T00:37:59.637Z,9.45
2022-09-28T00:48:02.165Z,9.48
2022-09-28T00:58:08.525Z,9.45
2022-09-28T01:08:12.066Z,9.42
2022-09-28T01:18:28.168Z,9.44
2022-09-28T01:28:32.000Z,9.40
2022-09-28T01:38:43.660Z,9.40
2022-09-28T01:48:55.617Z,9.45
2022-09-28T01:59:10.986Z,9.45
2022-09-28T02:09:21.877Z,9.43
2022-09-28T02:19:27.779Z,9.34
2022-09-28T02:29:30.036Z,9.40
2022-09-28T02:39:32.238Z,9.39
2022-09-28T02:49:48.157Z,9.36
2022-09-28T02:59:55.361Z,9.33
2022-09-28T03:10:30.289Z,9.37
2022-09-28T03:20:33.898Z,9.40
2022-09-28T03:30:36.215Z,9.44
2022-09-28T03:40:38.546Z,9.46
2022-09-28T03:50:41.125Z,9.46
2022-09-28T04:00:43.729Z,9.46
2022-09-28T04:10:46.599Z,9.46
2022-09-28T04:20:49.043Z,9.54
2022-09-28T04:30:51.455Z,9.56
2022-09-28T04:40:53.810Z,9.60
2022-09-28T04:50:58.119Z,9.62
2022-09-28T05:01:03.867Z,9.61
2022-09-28T05:11:08.655Z,9.67
2022-09-28T05:21:14.742Z,9.70
2022-09-28T05:31:17.866Z,9.75
2022-09-28T05:41:20.715Z,9.73
2022-09-28T05:51:25.071Z,9.76
2022-09-28T06:01:28.702Z,9.80
2022-09-28T06:11:32.701Z,9.87
2022-09-28T06:21:36.198Z,9.93
2022-09-28T06:31:38.931Z,9.98
2022-09-28T06:41:42.307Z,10.01
2022-09-28T06:51:46.563Z,10.01
2022-09-28T07:01:49.173Z,10.17
2022-09-28T07:11:53.301Z,10.25
2022-09-28T07:22:04.551Z,10.32
2022-09-28T07:32:10.418Z,10.40
2022-09-28T07:42:15.104Z,10.44
2022-09-28T07:52:20.345Z,10.54
2022-09-28T08:02:26.130Z,10.63
2022-09-28T08:12:34.846Z,10.74
2022-09-28T08:22:42.298Z,10.80
2022-09-28T08:32:51.890Z,10.78
2022-09-28T08:43:01.319Z,10.82
2022-09-28T08:53:21.482Z,10.93
2022-09-28T09:03:36.767Z,11.01
2022-09-28T09:14:16.689Z,11.10
2022-09-28T09:24:44.886Z,11.19
2022-09-28T09:35:34.625Z,11.39
2022-09-28T09:46:10.290Z,11.53
2022-09-28T09:56:38.657Z,11.59
2022-09-28T10:06:46.985Z,11.55
2022-09-28T10:16:53.279Z,11.34
2022-09-28T10:27:00.281Z,11.27
2022-09-28T10:37:08.419Z,11.38
2022-09-28T10:47:18.603Z,11.47
2022-09-28T10:57:35.766Z,11.53
2022-09-28T11:07:49.320Z,11.24
2022-09-28T11:17:53.274Z,11.08
2022-09-28T11:27:58.238Z,11.21
2022-09-28T11:38:28.123Z,11.30
2022-09-28T11:48:43.624Z,11.30
2022-09-28T11:59:23.267Z,11.22
2022-09-28T12:09:43.076Z,11.16
2022-09-28T12:19:54.640Z,11.15
2022-09-28T12:30:08.085Z,11.06
2022-09-28T12:40:17.737Z,11.07
2022-09-28T12:51:19.594Z,11.11
2022-09-28T13:01:36.440Z,11.02
2022-09-28T13:12:17.285Z,10.91
2022-09-28T13:22:41.019Z,10.92
2022-09-28T13:32:48.143Z,10.98
2022-09-28T13:43:18.844Z,11.01
2022-09-28T13:53:48.155Z,11.09
2022-09-28T14:04:17.336Z,11.14
2022-09-28T14:14:50.851Z,11.21
2022-09-28T14:25:31.854Z,11.24
2022-09-28T14:35:41.641Z,11.40
2022-09-28T14:45:44.866Z,11.35
2022-09-28T14:55:58.558Z,11.18
2022-09-28T15:06:02.372Z,11.16
2022-09-28T15:16:12.094Z,11.16
2022-09-28T15:26:24.842Z,11.05
2022-09-28T15:36:33.734Z,10.96
2022-09-28T15:46:40.911Z,10.83
2022-09-28T15:56:58.159Z,10.76
2022-09-28T16:07:20.645Z,10.70
2022-09-28T16:17:35.838Z,10.63
2022-09-28T16:27:45.430Z,10.53
2022-09-28T16:37:57.303Z,10.39
2022-09-28T16:48:02.283Z,10.31
2022-09-28T16:58:06.642Z,10.20
2022-09-28T17:08:13.754Z,10.12
2022-09-28T17:18:19.128Z,10.06
2022-09-28T17:28:31.388Z,10.00
2022-09-28T17:38:35.201Z,9.95
2022-09-28T17:48:38.058Z,9.76
2022-09-28T17:58:40.998Z,9.72
2022-09-28T18:08:47.595Z,9.65
2022-09-28T18:18:50.756Z,9.59
2022-09-28T18:28:56.679Z,9.52
2022-09-28T18:39:02.133Z,9.45
2022-09-28T18:49:05.776Z,9.39
2022-09-28T18:59:12.272Z,9.35
2022-09-28T19:09:15.832Z,9.33
2022-09-28T19:19:20.582Z,9.30
2022-09-28T19:29:24.229Z,9.24
2022-09-28T19:39:27.934Z,9.21
2022-09-28T19:49:36.547Z,9.18
2022-09-28T19:59:39.986Z,9.21
2022-09-28T20:09:42.773Z,9.10
2022-09-28T20:19:45.551Z,9.12
2022-09-28T20:29:48.534Z,9.18
2022-09-28T20:39:53.549Z,9.17
2022-09-28T20:49:57.603Z,9.15
2022-09-28T21:00:00.964Z,9.18
2022-09-28T21:10:03.811Z,9.21
2022-09-28T21:20:07.568Z,9.19
2022-09-28T21:30:11.336Z,9.22
2022-09-28T21:40:14.312Z,9.20
2022-09-28T21:50:17.067Z,9.19
2022-09-28T22:00:24.413Z,9.21
2022-09-28T22:10:26.837Z,9.12
2022-09-28T22:20:29.265Z,9.21
2022-09-28T22:30:31.673Z,9.18
2022-09-28T22:40:34.171Z,9.21
2022-09-28T22:50:39.378Z,9.22
2022-09-28T23:00:41.967Z,9.21
2022-09-28T23:10:44.629Z,9.20
2022-09-28T23:20:54.334Z,9.20
2022-09-28T23:30:56.741Z,9.09
2022-09-28T23:40:59.254Z,9.14
2022-09-28T23:51:02.201Z,9.18
